createdAt,value
2022-09-05T00:02:48.736Z,20.60
2022-09-05T00:05:22.828Z,20.60
2022-09-05T00:07:59.525Z,20.60
2022-09-05T00:10:37.340Z,20.50
2022-09-05T00:13:07.998Z,20.60
2022-09-05T00:15:40.384Z,20.70
2022-09-05T00:24:17.673Z,20.70
2022-09-05T00:24:28.564Z,20.60
2022-09-05T00:24:32.757Z,20.70
2022-09-05T00:26:58.670Z,20.60
2022-09-05T00:31:05.621Z,20.60
2022-09-05T00:32:40.355Z,20.50
2022-09-05T00:35:14.750Z,20.40
2022-09-05T00:37:45.486Z,20.30
2022-09-05T00:40:27.005Z,20.20
2022-09-05T00:42:56.955Z,20.20
2022-09-05T00:45:28.122Z,20.30
2022-09-05T00:48:00.708Z,20.30
2022-09-05T00:50:31.264Z,20.20
2022-09-05T00:53:07.563Z,20.00
2022-09-05T00:55:40.134Z,19.80
2022-09-05T00:58:22.762Z,19.70
2022-09-05T01:00:53.377Z,19.70
2022-09-05T01:03:28.044Z,19.50
2022-09-05T01:06:05.138Z,19.30
2022-09-05T01:08:47.535Z,19.30
2022-09-05T01:11:20.820Z,19.30
2022-09-05T01:13:51.373Z,19.20
2022-09-05T01:16:23.048Z,19.20
2022-09-05T01:18:54.929Z,19.10
2022-09-05T01:21:40.620Z,19.10
2022-09-05T01:24:27.690Z,19.20
2022-09-05T01:27:12.187Z,19.10
2022-09-05T01:29:44.986Z,18.90
2022-09-05T01:32:21.952Z,18.70
2022-09-05T01:34:57.003Z,18.70
2022-09-05T01:37:33.686Z,18.70
2022-09-05T01:40:14.946Z,18.70
2022-09-05T01:42:48.886Z,18.60
2022-09-05T01:45:20.119Z,18.60
2022-09-05T01:47:50.975Z,18.70
2022-09-05T01:50:28.631Z,18.80
2022-09-05T01:53:03.114Z,19.00
2022-09-05T01:56:04.188Z,19.10
2022-09-05T01:58:32.811Z,19.10
2022-09-05T02:01:26.999Z,19.30
2022-09-05T02:04:00.535Z,19.20
2022-09-05T02:06:36.440Z,19.20
2022-09-05T02:09:15.336Z,19.20
2022-09-05T02:11:46.408Z,19.40
2022-09-05T02:14:34.175Z,19.40
2022-09-05T02:17:31.972Z,19.40
2022-09-05T02:20:08.608Z,19.30
2022-09-05T02:22:42.730Z,19.50
2022-09-05T02:25:24.842Z,19.50
2022-09-05T02:28:04.782Z,19.40
2022-09-05T02:30:35.992Z,19.30
2022-09-05T02:33:11.810Z,19.00
2022-09-05T02:35:43.912Z,19.00
2022-09-05T02:40:53.550Z,19.20
2022-09-05T02:45:06.538Z,19.30
2022-09-05T02:45:10.847Z,19.20
2022-09-05T02:46:51.479Z,19.20
2022-09-05T02:50:33.452Z,19.10
2022-09-05T02:57:29.837Z,19.10
2022-09-05T02:57:34.041Z,19.10
2022-09-05T02:58:09.044Z,19.30
2022-09-05T03:00:39.517Z,19.30
2022-09-05T03:03:18.799Z,19.20
2022-09-05T03:05:53.030Z,19.20
2022-09-05T03:08:24.956Z,19.20
2022-09-05T03:11:04.721Z,19.00
2022-09-05T03:13:50.164Z,19.00
2022-09-05T03:16:42.112Z,19.00
2022-09-05T03:19:46.734Z,19.10
2022-09-05T03:22:36.915Z,19.10
2022-09-05T03:25:17.470Z,19.20
2022-09-05T03:28:04.055Z,19.30
2022-09-05T03:30:40.838Z,19.30
2022-09-05T03:33:22.923Z,19.30
2022-09-05T03:36:20.828Z,19.30
2022-09-05T03:39:15.529Z,19.50
2022-09-05T03:41:58.704Z,19.50
2022-09-05T03:44:34.700Z,19.60
2022-09-05T03:47:12.151Z,19.70
2022-09-05T03:55:41.156Z,19.80
2022-09-05T03:57:07.548Z,19.80
2022-09-05T03:57:15.050Z,19.90
2022-09-05T03:58:58.933Z,19.90
2022-09-05T04:03:47.160Z,19.90
2022-09-05T04:08:16.469Z,20.00
2022-09-05T04:08:28.731Z,20.00
2022-09-05T04:10:08.985Z,20.00
2022-09-05T04:12:39.923Z,20.00
2022-09-05T04:15:14.473Z,20.00
2022-09-05T04:17:44.204Z,20.00
2022-09-05T04:20:14.898Z,20.00
2022-09-05T04:23:00.625Z,20.00
2022-09-05T04:25:35.406Z,20.10
2022-09-05T04:28:11.097Z,20.10
2022-09-05T04:30:44.580Z,20.10
2022-09-05T04:33:19.098Z,19.90
2022-09-05T04:35:53.995Z,19.70
2022-09-05T04:38:36.992Z,19.50
2022-09-05T04:41:08.662Z,19.50
2022-09-05T04:43:39.048Z,19.50
2022-09-05T04:46:12.387Z,19.50
2022-09-05T04:48:44.900Z,19.50
2022-09-05T04:51:27.678Z,19.50
2022-09-05T04:54:10.507Z,19.50
2022-09-05T04:56:42.758Z,19.50
2022-09-05T05:01:00.380Z,19.30
2022-09-05T05:06:13.729Z,19.10
2022-09-05T05:06:17.931Z,19.10
2022-09-05T05:07:52.299Z,19.20
2022-09-05T05:12:32.796Z,19.30
2022-09-05T05:18:01.445Z,19.30
2022-09-05T05:18:06.880Z,19.40
2022-09-05T05:19:05.116Z,19.40
2022-09-05T05:21:35.093Z,19.20
2022-09-05T05:24:09.424Z,19.10
2022-09-05T05:26:42.123Z,18.80
2022-09-05T05:29:11.392Z,18.70
2022-09-05T05:31:41.188Z,18.70
2022-09-05T05:34:24.599Z,18.80
2022-09-05T05:37:00.261Z,18.90
2022-09-05T05:39:29.583Z,19.10
2022-09-05T05:41:58.160Z,19.10
2022-09-05T05:44:27.664Z,18.90
2022-09-05T05:46:59.246Z,18.80
2022-09-05T05:49:34.107Z,18.70
2022-09-05T05:52:13.726Z,18.70
2022-09-05T05:54:45.546Z,18.60
2022-09-05T05:57:23.786Z,18.60
2022-09-05T06:00:05.026Z,18.50
2022-09-05T06:03:24.953Z,18.50
2022-09-05T06:05:48.887Z,18.50
2022-09-05T06:13:02.272Z,18.60
2022-09-05T06:15:02.809Z,18.60
2022-09-05T06:15:10.282Z,18.70
2022-09-05T06:17:52.402Z,18.70
2022-09-05T06:22:09.629Z,18.80
2022-09-05T06:23:39.398Z,18.80
2022-09-05T06:26:22.034Z,18.80
2022-09-05T06:29:01.215Z,18.90
2022-09-05T06:31:38.850Z,19.00
2022-09-05T06:34:33.542Z,19.00
2022-09-05T06:37:07.946Z,19.10
2022-09-05T06:39:46.547Z,19.30
2022-09-05T06:42:42.179Z,19.40
2022-09-05T06:45:28.358Z,19.60
2022-09-05T06:47:59.621Z,19.70
2022-09-05T06:50:41.841Z,19.80
2022-09-05T06:53:33.903Z,19.90
2022-09-05T06:56:07.102Z,20.00
2022-09-05T06:58:50.770Z,20.10
2022-09-05T07:01:57.930Z,20.20
2022-09-05T07:04:52.820Z,20.30
2022-09-05T07:07:23.624Z,20.40
2022-09-05T07:09:57.426Z,20.50
2022-09-05T07:12:30.308Z,20.50
2022-09-05T07:15:09.316Z,20.70
2022-09-05T07:18:08.576Z,20.80
2022-09-05T07:21:02.284Z,21.00
2022-09-05T07:24:02.309Z,21.00
2022-09-05T07:26:51.998Z,21.10
2022-09-05T07:29:09.923Z,21.20
2022-09-05T07:31:39.676Z,21.30
2022-09-05T07:34:20.580Z,21.40
2022-09-05T07:36:50.827Z,21.60
2022-09-05T07:39:41.621Z,21.80
2022-09-05T07:42:15.023Z,22.00
2022-09-05T07:44:47.310Z,22.20
2022-09-05T07:47:20.535Z,22.40
2022-09-05T07:50:12.583Z,22.60
2022-09-05T07:56:48.139Z,22.60
2022-09-05T07:57:00.912Z,22.70
2022-09-05T07:58:19.805Z,22.70
2022-09-05T08:00:51.964Z,22.80
2022-09-05T08:03:25.557Z,22.90
2022-09-05T08:05:54.848Z,23.20
2022-09-05T08:08:24.674Z,23.30
2022-09-05T08:11:24.204Z,23.50
2022-09-05T08:13:51.459Z,23.50
2022-09-05T08:16:20.943Z,23.70
2022-09-05T08:18:51.757Z,24.00
2022-09-05T08:21:27.111Z,24.10
2022-09-05T08:23:57.799Z,24.30
2022-09-05T08:26:36.199Z,24.40
2022-09-05T08:29:08.910Z,24.70
2022-09-05T08:31:42.226Z,25.00
2022-09-05T08:34:13.626Z,25.10
2022-09-05T08:36:43.059Z,25.30
2022-09-05T08:39:12.431Z,25.40
2022-09-05T08:41:51.252Z,25.60
2022-09-05T08:46:44.797Z,25.70
2022-09-05T08:47:18.253Z,25.60
2022-09-05T08:49:52.142Z,25.80
2022-09-05T08:52:27.727Z,26.00
2022-09-05T08:55:05.790Z,26.20
2022-09-05T08:57:55.104Z,26.50
2022-09-05T09:00:24.673Z,26.50
2022-09-05T09:03:07.008Z,26.90
2022-09-05T09:05:56.729Z,27.20
2022-09-05T09:08:45.175Z,27.30
2022-09-05T09:11:16.126Z,27.30
2022-09-05T09:13:52.259Z,27.40
2022-09-05T09:16:27.871Z,27.70
2022-09-05T09:19:06.359Z,27.80
2022-09-05T09:21:40.680Z,27.90
2022-09-05T09:24:14.042Z,27.70
2022-09-05T09:26:43.471Z,27.50
2022-09-05T09:29:13.183Z,27.70
2022-09-05T09:31:56.319Z,28.10
2022-09-05T09:34:39.582Z,28.20
2022-09-05T09:37:49.916Z,28.50
2022-09-05T09:40:23.314Z,28.50
2022-09-05T09:42:51.894Z,28.40
2022-09-05T09:45:29.836Z,28.50
2022-09-05T09:48:06.914Z,28.60
2022-09-05T09:50:47.820Z,28.80
2022-09-05T09:53:37.128Z,29.20
2022-09-05T09:56:13.687Z,29.00
2022-09-05T09:58:49.902Z,28.80
2022-09-05T10:01:36.708Z,28.30
2022-09-05T10:10:33.201Z,28.00
2022-09-05T10:10:52.851Z,27.70
2022-09-05T10:10:53.206Z,27.80
2022-09-05T10:13:23.991Z,28.10
2022-09-05T10:16:24.195Z,28.50
2022-09-05T10:19:00.555Z,28.80
2022-09-05T10:21:37.504Z,29.20
2022-09-05T10:24:20.209Z,29.60
2022-09-05T10:27:04.178Z,30.10
2022-09-05T10:29:53.736Z,30.50
2022-09-05T10:35:22.714Z,30.70
2022-09-05T10:35:22.917Z,30.60
2022-09-05T10:37:54.845Z,30.90
2022-09-05T10:40:23.951Z,30.90
2022-09-05T10:43:00.413Z,31.10
2022-09-05T10:45:38.781Z,31.30
2022-09-05T10:48:13.617Z,31.60
2022-09-05T10:50:44.358Z,31.90
2022-09-05T10:53:39.464Z,32.20
2022-09-05T10:56:12.212Z,32.30
2022-09-05T11:01:06.932Z,32.40
2022-09-05T11:02:29.254Z,32.60
2022-09-05T11:04:28.674Z,32.20
2022-09-05T11:07:03.547Z,32.00
2022-09-05T11:09:44.562Z,32.20
2022-09-05T11:12:22.305Z,32.50
2022-09-05T11:14:52.335Z,32.80
2022-09-05T11:17:27.886Z,32.70
2022-09-05T11:20:00.917Z,32.60
2022-09-05T11:22:30.925Z,32.80
2022-09-05T11:25:00.204Z,32.70
2022-09-05T11:27:30.776Z,33.10
2022-09-05T11:30:01.041Z,33.10
2022-09-05T11:39:12.089Z,33.00
2022-09-05T11:39:50.616Z,32.70
2022-09-05T11:40:04.117Z,32.30
2022-09-05T11:41:38.966Z,32.20
2022-09-05T11:44:27.561Z,32.70
2022-09-05T11:47:27.989Z,32.80
2022-09-05T11:50:09.100Z,33.00
2022-09-05T11:52:55.018Z,33.40
2022-09-05T11:55:33.227Z,33.70
2022-09-05T11:58:14.722Z,33.60
2022-09-05T12:01:41.876Z,33.20
2022-09-05T12:04:08.112Z,32.90
2022-09-05T12:07:02.005Z,33.30
2022-09-05T12:09:37.581Z,33.90
2022-09-05T12:12:19.339Z,34.00
2022-09-05T12:15:12.135Z,33.80
2022-09-05T12:17:47.008Z,34.00
2022-09-05T12:20:17.155Z,33.90
2022-09-05T12:22:54.351Z,33.70
2022-09-05T12:27:36.108Z,33.40
2022-09-05T12:29:33.736Z,33.50
2022-09-05T12:32:06.939Z,33.50
2022-09-05T12:36:09.705Z,33.90
2022-09-05T12:40:05.099Z,33.90
2022-09-05T12:40:56.153Z,34.30
2022-09-05T12:42:54.879Z,34.80
2022-09-05T12:45:40.377Z,34.60
2022-09-05T12:48:11.497Z,34.50
2022-09-05T12:50:43.428Z,34.30
2022-09-05T12:53:13.278Z,34.80
2022-09-05T12:55:49.417Z,35.10
2022-09-05T13:02:57.219Z,35.20
2022-09-05T13:03:06.942Z,35.50
2022-09-05T13:04:20.267Z,35.10
2022-09-05T13:06:57.199Z,35.40
2022-09-05T13:09:35.814Z,35.00
2022-09-05T13:14:54.226Z,34.90
2022-09-05T13:15:18.702Z,35.00
2022-09-05T13:17:55.119Z,35.20
2022-09-05T13:20:33.962Z,35.00
2022-09-05T13:23:03.135Z,35.00
2022-09-05T13:25:31.115Z,35.40
2022-09-05T13:28:01.496Z,35.70
2022-09-05T13:34:58.590Z,36.10
2022-09-05T13:38:09.898Z,37.10
2022-09-05T13:38:20.157Z,36.50
2022-09-05T13:39:04.351Z,37.30
2022-09-05T13:41:35.493Z,37.60
2022-09-05T13:44:25.306Z,37.90
2022-09-05T13:46:59.256Z,37.40
2022-09-05T13:49:32.201Z,37.70
2022-09-05T13:52:09.183Z,37.90
2022-09-05T13:54:44.113Z,38.00
2022-09-05T13:57:31.652Z,38.00
2022-09-05T14:00:27.131Z,38.10
2022-09-05T14:06:26.424Z,37.60
2022-09-05T14:11:57.939Z,37.00
2022-09-05T14:20:50.534Z,36.90
2022-09-05T14:23:20.994Z,37.30
2022-09-05T14:25:50.327Z,37.50
2022-09-05T14:28:24.063Z,37.50
2022-09-05T14:30:54.156Z,37.40
2022-09-05T14:37:49.874Z,37.30
2022-09-05T14:37:50.572Z,37.50
2022-09-05T14:39:43.678Z,37.30
2022-09-05T14:42:23.936Z,37.50
2022-09-05T14:45:06.278Z,37.50
2022-09-05T14:48:02.498Z,37.50
2022-09-05T14:50:49.275Z,37.70
2022-09-05T14:57:15.181Z,37.30
2022-09-05T15:02:46.277Z,37.10
2022-09-05T15:02:47.896Z,37.10
2022-09-05T15:04:55.095Z,36.80
2022-09-05T15:07:25.387Z,36.50
2022-09-05T15:12:24.881Z,36.50
2022-09-05T15:13:15.735Z,36.00
2022-09-05T15:16:02.069Z,36.10
2022-09-05T15:18:32.170Z,36.00
2022-09-05T15:21:34.084Z,36.00
2022-09-05T15:24:04.863Z,36.00
2022-09-05T15:26:47.927Z,36.20
2022-09-05T15:29:20.855Z,36.10
2022-09-05T15:31:53.257Z,35.80
2022-09-05T15:34:38.572Z,35.50
2022-09-05T15:37:22.363Z,35.30
2022-09-05T15:40:00.589Z,35.40
2022-09-05T15:42:30.622Z,35.20
2022-09-05T15:45:17.036Z,35.40
2022-09-05T15:47:47.397Z,35.60
2022-09-05T15:50:21.782Z,35.80
2022-09-05T15:52:54.904Z,35.70
2022-09-05T15:55:24.561Z,35.40
2022-09-05T15:57:54.994Z,35.20
2022-09-05T16:00:39.398Z,34.90
2022-09-05T16:05:24.632Z,34.70
2022-09-05T16:10:39.231Z,34.10
2022-09-05T16:10:50.857Z,33.80
2022-09-05T16:12:09.075Z,33.70
2022-09-05T16:14:28.770Z,33.60
2022-09-05T16:23:11.794Z,33.60
2022-09-05T16:23:17.445Z,33.50
2022-09-05T16:23:25.292Z,33.40
2022-09-05T16:25:30.487Z,33.20
2022-09-05T16:28:00.565Z,32.70
2022-09-05T16:30:31.031Z,32.50
2022-09-05T16:33:03.195Z,32.20
2022-09-05T16:35:33.478Z,31.60
2022-09-05T16:38:07.096Z,31.20
2022-09-05T16:40:36.487Z,30.90
2022-09-05T16:43:07.615Z,30.70
2022-09-05T16:45:40.069Z,30.50
2022-09-05T16:48:14.131Z,30.30
2022-09-05T16:50:50.441Z,30.10
2022-09-05T16:53:28.261Z,30.00
2022-09-05T16:56:00.458Z,29.90
2022-09-05T16:58:31.260Z,29.80
2022-09-05T17:01:12.052Z,29.60
2022-09-05T17:03:46.315Z,29.50
2022-09-05T17:06:26.406Z,29.40
2022-09-05T17:09:12.138Z,29.20
2022-09-05T17:11:44.391Z,29.10
2022-09-05T17:14:33.306Z,28.90
2022-09-05T17:17:21.394Z,28.80
2022-09-05T17:20:05.687Z,28.70
2022-09-05T17:24:49.293Z,28.60
2022-09-05T17:29:23.461Z,28.50
2022-09-05T17:29:27.413Z,28.40
2022-09-05T17:34:46.797Z,28.10
2022-09-05T17:37:32.134Z,28.00
2022-09-05T17:40:05.219Z,27.80
2022-09-05T17:42:38.917Z,27.60
2022-09-05T17:45:10.581Z,27.50
2022-09-05T17:47:46.140Z,27.30
2022-09-05T17:50:16.022Z,27.10
2022-09-05T17:53:26.041Z,27.00
2022-09-05T17:56:12.220Z,26.90
2022-09-05T17:58:49.217Z,26.60
2022-09-05T18:01:19.460Z,26.40
2022-09-05T18:04:17.321Z,26.40
2022-09-05T18:06:54.072Z,26.10
2022-09-05T18:09:55.698Z,26.00
2022-09-05T18:13:13.486Z,25.90
2022-09-05T18:15:44.048Z,25.70
2022-09-05T18:18:35.428Z,25.60
2022-09-05T18:21:22.453Z,25.40
2022-09-05T18:26:41.827Z,25.20
2022-09-05T18:29:15.864Z,25.00
2022-09-05T18:32:03.140Z,24.90
2022-09-05T18:34:55.218Z,24.70
2022-09-05T18:37:42.660Z,24.50
2022-09-05T18:40:36.424Z,24.40
2022-09-05T18:43:10.449Z,24.30
2022-09-05T18:45:52.143Z,24.20
2022-09-05T18:48:28.294Z,24.10
2022-09-05T18:51:13.006Z,24.00
2022-09-05T18:53:47.271Z,23.90
2022-09-05T18:56:26.766Z,23.80
2022-09-05T18:59:09.527Z,23.70
2022-09-05T19:01:40.982Z,23.60
2022-09-05T19:04:33.125Z,23.50
2022-09-05T19:07:07.725Z,23.40
2022-09-05T19:09:37.282Z,23.40
2022-09-05T19:12:31.645Z,23.40
2022-09-05T19:14:54.853Z,23.30
2022-09-05T19:17:27.437Z,23.20
2022-09-05T19:20:32.153Z,23.10
2022-09-05T19:23:11.244Z,23.10
2022-09-05T19:25:40.973Z,23.00
2022-09-05T19:36:46.370Z,22.90
2022-09-05T19:37:03.967Z,22.80
2022-09-05T19:37:05.923Z,22.90
2022-09-05T19:37:07.577Z,22.70
2022-09-05T19:46:15.441Z,22.70
2022-09-05T19:47:39.628Z,22.60
2022-09-05T19:47:44.912Z,22.50
2022-09-05T19:48:07.667Z,22.40
2022-09-05T19:50:37.306Z,22.40
2022-09-05T19:53:07.233Z,22.30
2022-09-05T19:55:36.475Z,22.30
2022-09-05T19:58:19.090Z,22.20
2022-09-05T20:01:01.120Z,22.10
2022-09-05T20:03:35.483Z,22.10
2022-09-05T20:06:28.718Z,22.10
2022-09-05T20:09:07.713Z,22.00
2022-09-05T20:11:45.166Z,22.00
2022-09-05T20:14:18.455Z,21.90
2022-09-05T20:16:50.092Z,21.90
2022-09-05T20:19:33.016Z,21.90
2022-09-05T20:22:12.832Z,21.90
2022-09-05T20:24:51.296Z,21.90
2022-09-05T20:27:19.158Z,22.00
2022-09-05T20:29:56.767Z,22.00
2022-09-05T20:32:39.413Z,22.10
2022-09-05T20:40:44.698Z,22.10
2022-09-05T20:43:26.645Z,22.10
2022-09-05T20:43:35.846Z,22.00
2022-09-05T20:43:57.831Z,22.00
2022-09-05T20:50:26.123Z,22.00
2022-09-05T20:54:05.690Z,22.00
2022-09-05T20:54:20.741Z,22.10
2022-09-05T20:54:58.692Z,22.00
2022-09-05T20:57:46.411Z,22.00
2022-09-05T21:00:15.631Z,22.00
2022-09-05T21:02:50.553Z,21.90
2022-09-05T21:05:24.667Z,21.90
2022-09-05T21:08:07.076Z,22.00
2022-09-05T21:10:54.757Z,21.90
2022-09-05T21:13:24.963Z,21.90
2022-09-05T21:15:54.252Z,21.90
2022-09-05T21:18:23.343Z,22.10
2022-09-05T21:20:58.220Z,22.00
2022-09-05T21:23:29.501Z,21.90
2022-09-05T21:25:59.243Z,21.90
2022-09-05T21:28:36.579Z,21.90
2022-09-05T21:31:15.839Z,21.90
2022-09-05T21:33:45.887Z,21.90
2022-09-05T21:36:15.589Z,21.80
2022-09-05T21:38:44.024Z,21.60
2022-09-05T21:41:16.648Z,21.20
2022-09-05T21:47:37.713Z,20.60
2022-09-05T21:47:39.993Z,20.80
2022-09-05T21:49:22.527Z,20.60
2022-09-05T21:51:51.712Z,20.60
2022-09-05T21:59:17.232Z,20.70
2022-09-05T21:59:25.237Z,20.90
2022-09-05T22:00:07.110Z,20.80
2022-09-05T22:02:38.853Z,21.00
2022-09-05T22:05:07.165Z,21.10
2022-09-05T22:07:35.747Z,21.00
2022-09-05T22:10:04.876Z,21.10
2022-09-05T22:12:38.452Z,21.10
2022-09-05T22:15:26.494Z,21.10
2022-09-05T22:18:06.309Z,21.10
2022-09-05T22:20:44.410Z,21.10
2022-09-05T22:23:12.534Z,21.10
2022-09-05T22:25:40.302Z,21.00
2022-09-05T22:28:12.675Z,21.20
2022-09-05T22:30:40.623Z,21.30
2022-09-05T22:33:08.752Z,21.30
2022-09-05T22:35:38.977Z,21.30
2022-09-05T22:38:11.862Z,21.50
2022-09-05T22:40:42.180Z,21.70
2022-09-05T22:43:11.522Z,21.80
2022-09-05T22:45:41.335Z,21.80
2022-09-05T22:48:10.131Z,22.00
2022-09-05T22:50:37.857Z,22.00
2022-09-05T22:53:06.970Z,22.00
2022-09-05T22:55:34.911Z,22.00
2022-09-05T22:58:02.857Z,21.90
2022-09-05T23:00:32.061Z,21.90
2022-09-05T23:03:00.349Z,21.80
2022-09-05T23:05:28.989Z,21.70
2022-09-05T23:07:57.559Z,21.60
2022-09-05T23:10:25.518Z,21.60
2022-09-05T23:12:53.542Z,21.50
2022-09-05T23:15:21.257Z,21.50
2022-09-05T23:17:55.413Z,21.50
2022-09-05T23:20:23.290Z,21.40
2022-09-05T23:22:51.001Z,21.40
2022-09-05T23:25:19.072Z,21.40
2022-09-05T23:27:46.927Z,21.40
2022-09-05T23:30:14.710Z,21.40
2022-09-05T23:32:44.613Z,21.40
2022-09-05T23:35:14.280Z,21.40
2022-09-05T23:37:43.079Z,21.40
2022-09-05T23:40:11.429Z,21.40
2022-09-05T23:42:39.495Z,21.40
2022-09-05T23:45:07.743Z,21.40
2022-09-05T23:47:36.052Z,21.50
2022-09-05T23:50:03.807Z,21.50
2022-09-05T23:52:38.357Z,21.30
2022-09-05T23:55:06.510Z,21.40
2022-09-05T23:57:34.247Z,21.40
